sensor_id;sensor_type;location;lat;lon;timestamp;P1;durP1;ratioP1;P2;durP2;ratioP2
48665;SDS011;34452;50.796;4.994;2022-07-23T00:00:47;16.13;;;11.18;;
48665;SDS011;34452;50.796;4.994;2022-07-23T00:03:13;16.73;;;10.65;;
48665;SDS011;34452;50.796;4.994;2022-07-23T00:05:39;16.58;;;9.80;;
48665;SDS011;34452;50.796;4.994;2022-07-23T00:08:05;17.65;;;9.90;;
48665;SDS011;34452;50.796;4.994;2022-07-23T00:10:32;22.45;;;9.70;;
48665;SDS011;34452;50.796;4.994;2022-07-23T00:12:57;20.50;;;9.85;;
48665;SDS011;34452;50.796;4.994;2022-07-23T00:15:23;17.35;;;10.85;;
48665;SDS011;34452;50.796;4.994;2022-07-23T00:17:49;18.27;;;10.70;;
48665;SDS011;34452;50.796;4.994;2022-07-23T00:20:15;19.40;;;10.63;;
48665;SDS011;34452;50.796;4.994;2022-07-23T00:25:26;16.25;;;10.73;;
48665;SDS011;34452;50.796;4.994;2022-07-23T00:27:52;14.65;;;10.15;;
48665;SDS011;34452;50.796;4.994;2022-07-23T00:30:18;22.33;;;13.23;;
48665;SDS011;34452;50.796;4.994;2022-07-23T00:35:30;20.60;;;11.40;;
48665;SDS011;34452;50.796;4.994;2022-07-23T00:37:58;15.32;;;9.10;;
48665;SDS011;34452;50.796;4.994;2022-07-23T00:40:25;19.27;;;10.68;;
48665;SDS011;34452;50.796;4.994;2022-07-23T00:42:51;19.95;;;9.23;;
48665;SDS011;34452;50.796;4.994;2022-07-23T00:45:17;18.73;;;10.07;;
48665;SDS011;34452;50.796;4.994;2022-07-23T00:47:44;19.33;;;9.60;;
48665;SDS011;34452;50.796;4.994;2022-07-23T00:50:10;17.85;;;10.15;;
48665;SDS011;34452;50.796;4.994;2022-07-23T00:55:04;18.13;;;9.90;;
48665;SDS011;34452;50.796;4.994;2022-07-23T00:57:30;18.80;;;10.20;;
48665;SDS011;34452;50.796;4.994;2022-07-23T00:59:56;21.50;;;11.23;;
48665;SDS011;34452;50.796;4.994;2022-07-23T01:02:23;17.05;;;10.75;;
48665;SDS011;34452;50.796;4.994;2022-07-23T01:04:49;22.80;;;11.60;;
48665;SDS011;34452;50.796;4.994;2022-07-23T01:07:15;16.08;;;9.23;;
48665;SDS011;34452;50.796;4.994;2022-07-23T01:09:43;19.02;;;8.80;;
48665;SDS011;34452;50.796;4.994;2022-07-23T01:12:09;20.58;;;8.85;;
48665;SDS011;34452;50.796;4.994;2022-07-23T01:14:35;24.73;;;10.25;;
48665;SDS011;34452;50.796;4.994;2022-07-23T01:17:01;32.65;;;15.73;;
48665;SDS011;34452;50.796;4.994;2022-07-23T01:19:26;25.42;;;15.13;;
48665;SDS011;34452;50.796;4.994;2022-07-23T01:21:52;25.00;;;14.73;;
48665;SDS011;34452;50.796;4.994;2022-07-23T01:24:19;27.75;;;15.48;;
48665;SDS011;34452;50.796;4.994;2022-07-23T01:26:45;24.23;;;14.75;;
48665;SDS011;34452;50.796;4.994;2022-07-23T01:29:13;17.95;;;11.57;;
48665;SDS011;34452;50.796;4.994;2022-07-23T01:31:39;19.33;;;11.90;;
48665;SDS011;34452;50.796;4.994;2022-07-23T01:34:06;20.02;;;10.45;;
48665;SDS011;34452;50.796;4.994;2022-07-23T01:36:32;17.85;;;10.85;;
48665;SDS011;34452;50.796;4.994;2022-07-23T01:38:58;18.75;;;10.18;;
48665;SDS011;34452;50.796;4.994;2022-07-23T01:41:24;13.48;;;8.57;;
48665;SDS011;34452;50.796;4.994;2022-07-23T01:43:50;16.70;;;9.18;;
48665;SDS011;34452;50.796;4.994;2022-07-23T01:46:16;13.98;;;8.63;;
48665;SDS011;34452;50.796;4.994;2022-07-23T01:48:41;15.60;;;9.23;;
48665;SDS011;34452;50.796;4.994;2022-07-23T01:51:07;16.80;;;10.25;;
48665;SDS011;34452;50.796;4.994;2022-07-23T01:53:33;25.58;;;13.20;;
48665;SDS011;34452;50.796;4.994;2022-07-23T01:55:59;18.20;;;12.48;;
48665;SDS011;34452;50.796;4.994;2022-07-23T01:58:26;17.70;;;9.63;;
48665;SDS011;34452;50.796;4.994;2022-07-23T02:00:53;25.80;;;11.98;;
48665;SDS011;34452;50.796;4.994;2022-07-23T02:03:19;24.10;;;13.57;;
48665;SDS011;34452;50.796;4.994;2022-07-23T02:05:45;27.17;;;13.50;;
48665;SDS011;34452;50.796;4.994;2022-07-23T02:08:11;19.60;;;10.02;;
48665;SDS011;34452;50.796;4.994;2022-07-23T02:10:37;24.45;;;11.00;;
48665;SDS011;34452;50.796;4.994;2022-07-23T02:13:02;16.63;;;7.47;;
48665;SDS011;34452;50.796;4.994;2022-07-23T02:15:28;20.38;;;6.53;;
48665;SDS011;34452;50.796;4.994;2022-07-23T02:17:54;17.77;;;6.80;;
48665;SDS011;34452;50.796;4.994;2022-07-23T02:20:21;14.85;;;9.02;;
48665;SDS011;34452;50.796;4.994;2022-07-23T02:22:47;12.95;;;7.80;;
48665;SDS011;34452;50.796;4.994;2022-07-23T02:25:13;15.27;;;7.38;;
48665;SDS011;34452;50.796;4.994;2022-07-23T02:27:39;16.77;;;7.05;;
48665;SDS011;34452;50.796;4.994;2022-07-23T02:30:05;21.83;;;7.47;;
48665;SDS011;34452;50.796;4.994;2022-07-23T02:32:31;19.02;;;7.88;;
48665;SDS011;34452;50.796;4.994;2022-07-23T02:34:57;21.58;;;8.13;;
48665;SDS011;34452;50.796;4.994;2022-07-23T02:37:23;20.63;;;8.90;;
48665;SDS011;34452;50.796;4.994;2022-07-23T02:39:49;17.17;;;7.22;;
48665;SDS011;34452;50.796;4.994;2022-07-23T02:42:15;30.45;;;8.95;;
48665;SDS011;34452;50.796;4.994;2022-07-23T02:44:41;19.50;;;7.60;;
48665;SDS011;34452;50.796;4.994;2022-07-23T02:47:07;23.77;;;7.22;;
48665;SDS011;34452;50.796;4.994;2022-07-23T02:49:32;19.08;;;7.28;;
48665;SDS011;34452;50.796;4.994;2022-07-23T02:51:58;15.55;;;6.68;;
48665;SDS011;34452;50.796;4.994;2022-07-23T02:54:24;26.50;;;7.07;;
48665;SDS011;34452;50.796;4.994;2022-07-23T02:56:50;30.27;;;9.23;;
48665;SDS011;34452;50.796;4.994;2022-07-23T02:59:16;27.80;;;7.45;;
48665;SDS011;34452;50.796;4.994;2022-07-23T03:01:42;34.97;;;8.10;;
48665;SDS011;34452;50.796;4.994;2022-07-23T03:06:34;15.30;;;8.00;;
48665;SDS011;34452;50.796;4.994;2022-07-23T03:09:00;16.48;;;8.98;;
48665;SDS011;34452;50.796;4.994;2022-07-23T03:11:26;20.60;;;7.75;;
48665;SDS011;34452;50.796;4.994;2022-07-23T03:13:52;23.33;;;8.13;;
48665;SDS011;34452;50.796;4.994;2022-07-23T03:16:17;21.00;;;7.50;;
48665;SDS011;34452;50.796;4.994;2022-07-23T03:18:43;26.65;;;7.82;;
48665;SDS011;34452;50.796;4.994;2022-07-23T03:21:09;16.98;;;8.90;;
48665;SDS011;34452;50.796;4.994;2022-07-23T03:23:34;18.60;;;8.10;;
48665;SDS011;34452;50.796;4.994;2022-07-23T03:26:00;15.25;;;7.20;;
48665;SDS011;34452;50.796;4.994;2022-07-23T03:28:26;21.33;;;7.40;;
48665;SDS011;34452;50.796;4.994;2022-07-23T03:30:52;14.73;;;8.15;;
48665;SDS011;34452;50.796;4.994;2022-07-23T03:33:18;20.10;;;8.65;;
48665;SDS011;34452;50.796;4.994;2022-07-23T03:38:10;16.98;;;9.55;;
48665;SDS011;34452;50.796;4.994;2022-07-23T03:40:36;17.77;;;8.80;;
48665;SDS011;34452;50.796;4.994;2022-07-23T03:43:01;28.63;;;8.70;;
48665;SDS011;34452;50.796;4.994;2022-07-23T03:45:27;51.23;;;10.53;;
48665;SDS011;34452;50.796;4.994;2022-07-23T03:47:53;24.50;;;8.73;;
48665;SDS011;34452;50.796;4.994;2022-07-23T03:50:19;30.88;;;8.45;;
48665;SDS011;34452;50.796;4.994;2022-07-23T03:52:45;15.15;;;8.93;;
48665;SDS011;34452;50.796;4.994;2022-07-23T03:55:10;24.63;;;8.10;;
48665;SDS011;34452;50.796;4.994;2022-07-23T03:57:36;15.23;;;8.10;;
48665;SDS011;34452;50.796;4.994;2022-07-23T04:00:03;15.05;;;7.75;;
48665;SDS011;34452;50.796;4.994;2022-07-23T04:02:31;19.33;;;9.35;;
48665;SDS011;34452;50.796;4.994;2022-07-23T04:04:56;23.85;;;10.05;;
48665;SDS011;34452;50.796;4.994;2022-07-23T04:07:22;20.30;;;8.05;;
48665;SDS011;34452;50.796;4.994;2022-07-23T04:09:48;26.67;;;8.45;;
48665;SDS011;34452;50.796;4.994;2022-07-23T04:12:14;34.30;;;9.48;;
48665;SDS011;34452;50.796;4.994;2022-07-23T04:14:39;29.13;;;8.10;;
48665;SDS011;34452;50.796;4.994;2022-07-23T04:17:05;21.05;;;8.50;;
48665;SDS011;34452;50.796;4.994;2022-07-23T04:19:31;16.40;;;7.03;;
48665;SDS011;34452;50.796;4.994;2022-07-23T04:21:57;15.77;;;7.22;;
48665;SDS011;34452;50.796;4.994;2022-07-23T04:24:22;18.20;;;7.05;;
48665;SDS011;34452;50.796;4.994;2022-07-23T04:26:48;26.90;;;8.10;;
48665;SDS011;34452;50.796;4.994;2022-07-23T04:29:14;22.33;;;7.82;;
48665;SDS011;34452;50.796;4.994;2022-07-23T04:31:39;17.85;;;7.82;;
48665;SDS011;34452;50.796;4.994;2022-07-23T04:34:05;19.70;;;8.65;;
48665;SDS011;34452;50.796;4.994;2022-07-23T04:36:31;19.67;;;7.63;;
48665;SDS011;34452;50.796;4.994;2022-07-23T04:38:57;24.55;;;8.27;;
48665;SDS011;34452;50.796;4.994;2022-07-23T04:41:22;20.77;;;8.18;;
48665;SDS011;34452;50.796;4.994;2022-07-23T04:43:48;20.20;;;7.50;;
48665;SDS011;34452;50.796;4.994;2022-07-23T04:46:14;17.10;;;6.50;;
48665;SDS011;34452;50.796;4.994;2022-07-23T04:48:40;14.10;;;6.85;;
48665;SDS011;34452;50.796;4.994;2022-07-23T04:51:07;25.58;;;10.43;;
48665;SDS011;34452;50.796;4.994;2022-07-23T04:53:33;25.45;;;10.52;;
48665;SDS011;34452;50.796;4.994;2022-07-23T04:55:59;15.48;;;8.02;;
48665;SDS011;34452;50.796;4.994;2022-07-23T05:00:50;16.90;;;8.20;;
48665;SDS011;34452;50.796;4.994;2022-07-23T05:03:16;26.85;;;8.00;;
48665;SDS011;34452;50.796;4.994;2022-07-23T05:05:42;20.33;;;8.85;;
48665;SDS011;34452;50.796;4.994;2022-07-23T05:08:08;26.33;;;9.55;;
48665;SDS011;34452;50.796;4.994;2022-07-23T05:10:34;22.35;;;9.25;;
48665;SDS011;34452;50.796;4.994;2022-07-23T05:12:59;16.52;;;8.77;;
48665;SDS011;34452;50.796;4.994;2022-07-23T05:15:25;16.48;;;10.38;;
48665;SDS011;34452;50.796;4.994;2022-07-23T05:17:51;25.15;;;10.13;;
48665;SDS011;34452;50.796;4.994;2022-07-23T05:20:17;12.02;;;7.97;;
48665;SDS011;34452;50.796;4.994;2022-07-23T05:22:43;17.83;;;8.70;;
48665;SDS011;34452;50.796;4.994;2022-07-23T05:25:08;17.92;;;10.38;;
48665;SDS011;34452;50.796;4.994;2022-07-23T05:27:34;19.33;;;9.77;;
48665;SDS011;34452;50.796;4.994;2022-07-23T05:30:00;19.73;;;9.23;;
48665;SDS011;34452;50.796;4.994;2022-07-23T05:32:26;19.95;;;9.55;;
48665;SDS011;34452;50.796;4.994;2022-07-23T05:34:52;19.93;;;10.33;;
48665;SDS011;34452;50.796;4.994;2022-07-23T05:37:17;19.97;;;9.97;;
48665;SDS011;34452;50.796;4.994;2022-07-23T05:39:43;30.05;;;11.57;;
48665;SDS011;34452;50.796;4.994;2022-07-23T05:42:09;12.57;;;8.53;;
48665;SDS011;34452;50.796;4.994;2022-07-23T05:44:34;18.75;;;12.07;;
48665;SDS011;34452;50.796;4.994;2022-07-23T05:47:00;23.83;;;11.43;;
48665;SDS011;34452;50.796;4.994;2022-07-23T05:49:26;17.92;;;10.02;;
48665;SDS011;34452;50.796;4.994;2022-07-23T05:51:52;18.50;;;9.95;;
48665;SDS011;34452;50.796;4.994;2022-07-23T05:54:18;22.65;;;8.77;;
48665;SDS011;34452;50.796;4.994;2022-07-23T05:56:43;17.25;;;10.32;;
48665;SDS011;34452;50.796;4.994;2022-07-23T05:59:09;20.17;;;9.43;;
48665;SDS011;34452;50.796;4.994;2022-07-23T06:01:37;25.25;;;10.10;;
48665;SDS011;34452;50.796;4.994;2022-07-23T06:04:02;17.02;;;9.18;;
48665;SDS011;34452;50.796;4.994;2022-07-23T06:06:28;16.48;;;8.82;;
48665;SDS011;34452;50.796;4.994;2022-07-23T06:08:54;16.63;;;8.95;;
48665;SDS011;34452;50.796;4.994;2022-07-23T06:11:20;17.35;;;9.30;;
48665;SDS011;34452;50.796;4.994;2022-07-23T06:13:45;21.73;;;9.93;;
48665;SDS011;34452;50.796;4.994;2022-07-23T06:16:11;17.95;;;9.15;;
48665;SDS011;34452;50.796;4.994;2022-07-23T06:18:37;16.90;;;9.70;;
48665;SDS011;34452;50.796;4.994;2022-07-23T06:21:02;16.25;;;10.32;;
48665;SDS011;34452;50.796;4.994;2022-07-23T06:23:28;16.15;;;8.73;;
48665;SDS011;34452;50.796;4.994;2022-07-23T06:25:54;12.60;;;8.13;;
48665;SDS011;34452;50.796;4.994;2022-07-23T06:28:20;16.38;;;9.23;;
48665;SDS011;34452;50.796;4.994;2022-07-23T06:30:46;13.07;;;8.75;;
48665;SDS011;34452;50.796;4.994;2022-07-23T06:33:11;16.58;;;8.98;;
48665;SDS011;34452;50.796;4.994;2022-07-23T06:35:37;18.00;;;8.43;;
48665;SDS011;34452;50.796;4.994;2022-07-23T06:38:03;11.45;;;7.32;;
48665;SDS011;34452;50.796;4.994;2022-07-23T06:40:28;14.15;;;7.15;;
48665;SDS011;34452;50.796;4.994;2022-07-23T06:42:55;12.25;;;7.53;;
48665;SDS011;34452;50.796;4.994;2022-07-23T06:45:21;11.43;;;8.32;;
48665;SDS011;34452;50.796;4.994;2022-07-23T06:47:47;13.98;;;7.85;;
48665;SDS011;34452;50.796;4.994;2022-07-23T06:50:13;11.60;;;7.90;;
48665;SDS011;34452;50.796;4.994;2022-07-23T06:52:38;9.55;;;6.55;;
48665;SDS011;34452;50.796;4.994;2022-07-23T06:55:04;15.32;;;8.18;;
48665;SDS011;34452;50.796;4.994;2022-07-23T06:57:30;13.10;;;8.18;;
48665;SDS011;34452;50.796;4.994;2022-07-23T06:59:56;12.60;;;7.88;;
48665;SDS011;34452;50.796;4.994;2022-07-23T07:02:22;11.38;;;7.47;;
48665;SDS011;34452;50.796;4.994;2022-07-23T07:04:48;10.98;;;7.38;;
48665;SDS011;34452;50.796;4.994;2022-07-23T07:07:14;17.42;;;9.45;;
48665;SDS011;34452;50.796;4.994;2022-07-23T07:09:40;16.20;;;9.18;;
48665;SDS011;34452;50.796;4.994;2022-07-23T07:12:06;13.00;;;7.85;;
48665;SDS011;34452;50.796;4.994;2022-07-23T07:14:32;10.55;;;7.63;;
48665;SDS011;34452;50.796;4.994;2022-07-23T07:16:57;15.70;;;8.57;;
48665;SDS011;34452;50.796;4.994;2022-07-23T07:19:23;10.57;;;7.53;;
48665;SDS011;34452;50.796;4.994;2022-07-23T07:21:49;14.90;;;10.32;;
48665;SDS011;34452;50.796;4.994;2022-07-23T07:24:14;17.27;;;10.45;;
48665;SDS011;34452;50.796;4.994;2022-07-23T07:26:40;13.50;;;8.13;;
48665;SDS011;34452;50.796;4.994;2022-07-23T07:29:06;13.07;;;8.98;;
48665;SDS011;34452;50.796;4.994;2022-07-23T07:31:32;13.35;;;9.52;;
48665;SDS011;34452;50.796;4.994;2022-07-23T07:33:57;16.42;;;9.10;;
48665;SDS011;34452;50.796;4.994;2022-07-23T07:36:23;14.57;;;8.23;;
48665;SDS011;34452;50.796;4.994;2022-07-23T07:38:49;14.25;;;7.30;;
48665;SDS011;34452;50.796;4.994;2022-07-23T07:41:15;12.48;;;8.95;;
48665;SDS011;34452;50.796;4.994;2022-07-23T07:43:41;16.33;;;9.40;;
48665;SDS011;34452;50.796;4.994;2022-07-23T07:46:06;15.10;;;9.88;;
48665;SDS011;34452;50.796;4.994;2022-07-23T07:48:35;12.90;;;8.77;;
48665;SDS011;34452;50.796;4.994;2022-07-23T07:51:03;14.18;;;10.45;;
48665;SDS011;34452;50.796;4.994;2022-07-23T07:53:30;13.57;;;9.10;;
48665;SDS011;34452;50.796;4.994;2022-07-23T07:55:55;16.15;;;9.88;;
48665;SDS011;34452;50.796;4.994;2022-07-23T07:58:21;15.23;;;10.52;;
48665;SDS011;34452;50.796;4.994;2022-07-23T08:00:47;20.50;;;9.95;;
48665;SDS011;34452;50.796;4.994;2022-07-23T08:03:12;15.40;;;10.55;;
48665;SDS011;34452;50.796;4.994;2022-07-23T08:05:38;14.75;;;9.93;;
48665;SDS011;34452;50.796;4.994;2022-07-23T08:08:04;14.27;;;8.88;;
48665;SDS011;34452;50.796;4.994;2022-07-23T08:10:30;16.08;;;10.35;;
48665;SDS011;34452;50.796;4.994;2022-07-23T08:12:57;14.20;;;10.88;;
48665;SDS011;34452;50.796;4.994;2022-07-23T08:15:25;22.23;;;12.05;;
48665;SDS011;34452;50.796;4.994;2022-07-23T08:17:52;15.77;;;9.68;;
48665;SDS011;34452;50.796;4.994;2022-07-23T08:20:18;14.43;;;9.23;;
48665;SDS011;34452;50.796;4.994;2022-07-23T08:22:47;10.50;;;7.65;;
48665;SDS011;34452;50.796;4.994;2022-07-23T08:25:16;8.88;;;7.10;;
48665;SDS011;34452;50.796;4.994;2022-07-23T08:28:01;11.18;;;7.57;;
48665;SDS011;34452;50.796;4.994;2022-07-23T08:30:28;10.82;;;7.05;;
48665;SDS011;34452;50.796;4.994;2022-07-23T08:32:56;11.43;;;8.95;;
48665;SDS011;34452;50.796;4.994;2022-07-23T08:35:27;13.00;;;7.85;;
48665;SDS011;34452;50.796;4.994;2022-07-23T08:37:55;12.70;;;8.48;;
48665;SDS011;34452;50.796;4.994;2022-07-23T08:40:21;10.95;;;8.07;;
48665;SDS011;34452;50.796;4.994;2022-07-23T08:42:48;11.23;;;8.40;;
48665;SDS011;34452;50.796;4.994;2022-07-23T08:45:17;12.25;;;7.15;;
48665;SDS011;34452;50.796;4.994;2022-07-23T08:47:45;13.38;;;7.30;;
48665;SDS011;34452;50.796;4.994;2022-07-23T08:50:14;11.88;;;6.72;;
48665;SDS011;34452;50.796;4.994;2022-07-23T08:52:39;13.60;;;6.97;;
48665;SDS011;34452;50.796;4.994;2022-07-23T08:55:05;13.57;;;6.53;;
48665;SDS011;34452;50.796;4.994;2022-07-23T08:57:33;10.55;;;6.07;;
48665;SDS011;34452;50.796;4.994;2022-07-23T08:59:58;11.52;;;6.28;;
48665;SDS011;34452;50.796;4.994;2022-07-23T09:02:24;15.95;;;7.82;;
48665;SDS011;34452;50.796;4.994;2022-07-23T09:04:50;13.32;;;8.88;;
48665;SDS011;34452;50.796;4.994;2022-07-23T09:07:16;15.38;;;7.72;;
48665;SDS011;34452;50.796;4.994;2022-07-23T09:09:41;20.75;;;9.07;;
48665;SDS011;34452;50.796;4.994;2022-07-23T09:12:08;9.20;;;6.63;;
48665;SDS011;34452;50.796;4.994;2022-07-23T09:14:36;12.93;;;7.30;;
48665;SDS011;34452;50.796;4.994;2022-07-23T09:20:20;13.20;;;8.30;;
48665;SDS011;34452;50.796;4.994;2022-07-23T09:22:46;14.65;;;8.38;;
48665;SDS011;34452;50.796;4.994;2022-07-23T09:25:14;10.90;;;6.85;;
48665;SDS011;34452;50.796;4.994;2022-07-23T09:30:28;10.05;;;6.30;;
48665;SDS011;34452;50.796;4.994;2022-07-23T09:35:52;7.68;;;5.60;;
48665;SDS011;34452;50.796;4.994;2022-07-23T09:38:20;9.75;;;6.40;;
48665;SDS011;34452;50.796;4.994;2022-07-23T09:40:47;7.50;;;5.25;;
48665;SDS011;34452;50.796;4.994;2022-07-23T09:43:31;10.57;;;5.57;;
48665;SDS011;34452;50.796;4.994;2022-07-23T09:48:42;12.10;;;5.40;;
48665;SDS011;34452;50.796;4.994;2022-07-23T09:51:08;12.60;;;6.13;;
48665;SDS011;34452;50.796;4.994;2022-07-23T09:53:34;12.13;;;6.32;;
48665;SDS011;34452;50.796;4.994;2022-07-23T09:56:00;9.40;;;5.75;;
48665;SDS011;34452;50.796;4.994;2022-07-23T09:58:27;14.00;;;6.25;;
48665;SDS011;34452;50.796;4.994;2022-07-23T10:00:53;9.73;;;5.50;;
48665;SDS011;34452;50.796;4.994;2022-07-23T10:03:20;9.18;;;5.80;;
48665;SDS011;34452;50.796;4.994;2022-07-23T10:05:48;8.80;;;4.93;;
48665;SDS011;34452;50.796;4.994;2022-07-23T10:08:17;7.50;;;5.30;;
48665;SDS011;34452;50.796;4.994;2022-07-23T10:10:45;18.08;;;5.85;;
48665;SDS011;34452;50.796;4.994;2022-07-23T10:13:11;9.23;;;5.18;;
48665;SDS011;34452;50.796;4.994;2022-07-23T10:15:37;8.88;;;4.80;;
48665;SDS011;34452;50.796;4.994;2022-07-23T10:18:05;10.38;;;4.82;;
48665;SDS011;34452;50.796;4.994;2022-07-23T10:20:32;6.50;;;4.03;;
48665;SDS011;34452;50.796;4.994;2022-07-23T10:23:00;8.50;;;4.38;;
48665;SDS011;34452;50.796;4.994;2022-07-23T10:25:38;7.43;;;4.20;;
48665;SDS011;34452;50.796;4.994;2022-07-23T10:34:33;9.15;;;4.35;;
48665;SDS011;34452;50.796;4.994;2022-07-23T10:42:49;6.32;;;4.93;;
48665;SDS011;34452;50.796;4.994;2022-07-23T10:50:40;4.57;;;3.00;;
48665;SDS011;34452;50.796;4.994;2022-07-23T10:53:08;6.93;;;4.20;;
48665;SDS011;34452;50.796;4.994;2022-07-23T10:58:05;3.58;;;2.60;;
48665;SDS011;34452;50.796;4.994;2022-07-23T11:00:31;8.70;;;4.03;;
48665;SDS011;34452;50.796;4.994;2022-07-23T11:02:59;8.55;;;3.53;;
48665;SDS011;34452;50.796;4.994;2022-07-23T11:05:39;5.40;;;3.22;;
48665;SDS011;34452;50.796;4.994;2022-07-23T11:10:45;3.63;;;1.90;;
48665;SDS011;34452;50.796;4.994;2022-07-23T11:16:29;3.38;;;2.50;;
48665;SDS011;34452;50.796;4.994;2022-07-23T11:18:56;5.05;;;2.20;;
48665;SDS011;34452;50.796;4.994;2022-07-23T11:31:52;4.47;;;1.60;;
48665;SDS011;34452;50.796;4.994;2022-07-23T11:37:04;3.03;;;1.90;;
48665;SDS011;34452;50.796;4.994;2022-07-23T11:39:32;2.28;;;1.23;;
48665;SDS011;34452;50.796;4.994;2022-07-23T11:41:59;3.75;;;1.80;;
48665;SDS011;34452;50.796;4.994;2022-07-23T11:47:11;7.63;;;1.58;;
48665;SDS011;34452;50.796;4.994;2022-07-23T11:49:38;10.95;;;2.10;;
48665;SDS011;34452;50.796;4.994;2022-07-23T11:52:16;3.45;;;1.75;;
48665;SDS011;34452;50.796;4.994;2022-07-23T11:57:30;5.32;;;1.80;;
48665;SDS011;34452;50.796;4.994;2022-07-23T12:00:00;2.92;;;1.65;;
48665;SDS011;34452;50.796;4.994;2022-07-23T12:02:44;8.13;;;1.60;;
48665;SDS011;34452;50.796;4.994;2022-07-23T12:05:13;5.43;;;1.67;;
48665;SDS011;34452;50.796;4.994;2022-07-23T12:07:42;3.58;;;2.00;;
48665;SDS011;34452;50.796;4.994;2022-07-23T12:12:50;3.70;;;2.03;;
48665;SDS011;34452;50.796;4.994;2022-07-23T12:15:19;2.65;;;1.30;;
48665;SDS011;34452;50.796;4.994;2022-07-23T12:17:47;2.42;;;1.48;;
48665;SDS011;34452;50.796;4.994;2022-07-23T12:20:16;7.57;;;1.98;;
48665;SDS011;34452;50.796;4.994;2022-07-23T12:22:45;6.10;;;1.77;;
48665;SDS011;34452;50.796;4.994;2022-07-23T12:25:15;5.15;;;2.15;;
48665;SDS011;34452;50.796;4.994;2022-07-23T12:27:43;3.65;;;1.80;;
48665;SDS011;34452;50.796;4.994;2022-07-23T12:32:52;6.40;;;2.40;;
48665;SDS011;34452;50.796;4.994;2022-07-23T12:35:20;4.75;;;2.00;;
48665;SDS011;34452;50.796;4.994;2022-07-23T12:37:47;5.30;;;2.35;;
48665;SDS011;34452;50.796;4.994;2022-07-23T12:40:18;3.83;;;2.00;;
48665;SDS011;34452;50.796;4.994;2022-07-23T12:42:47;4.75;;;2.55;;
48665;SDS011;34452;50.796;4.994;2022-07-23T12:45:14;6.30;;;2.30;;
48665;SDS011;34452;50.796;4.994;2022-07-23T12:53:22;2.80;;;1.85;;
48665;SDS011;34452;50.796;4.994;2022-07-23T12:56:10;3.08;;;1.52;;
48665;SDS011;34452;50.796;4.994;2022-07-23T12:58:39;4.10;;;1.92;;
48665;SDS011;34452;50.796;4.994;2022-07-23T13:01:28;6.90;;;1.98;;
48665;SDS011;34452;50.796;4.994;2022-07-23T13:06:45;4.50;;;1.85;;
48665;SDS011;34452;50.796;4.994;2022-07-23T13:09:14;3.95;;;2.17;;
48665;SDS011;34452;50.796;4.994;2022-07-23T13:11:42;4.18;;;2.08;;
48665;SDS011;34452;50.796;4.994;2022-07-23T13:14:08;3.15;;;1.90;;
48665;SDS011;34452;50.796;4.994;2022-07-23T13:19:00;3.78;;;1.90;;
48665;SDS011;34452;50.796;4.994;2022-07-23T13:23:53;5.93;;;2.37;;
48665;SDS011;34452;50.796;4.994;2022-07-23T13:26:19;2.70;;;1.85;;
48665;SDS011;34452;50.796;4.994;2022-07-23T13:31:11;5.63;;;1.97;;
48665;SDS011;34452;50.796;4.994;2022-07-23T13:33:37;3.65;;;1.70;;
48665;SDS011;34452;50.796;4.994;2022-07-23T13:38:29;6.13;;;1.90;;
48665;SDS011;34452;50.796;4.994;2022-07-23T13:43:22;3.80;;;2.10;;
48665;SDS011;34452;50.796;4.994;2022-07-23T13:45:49;4.18;;;1.75;;
48665;SDS011;34452;50.796;4.994;2022-07-23T13:48:16;3.00;;;2.17;;
48665;SDS011;34452;50.796;4.994;2022-07-23T13:50:44;5.35;;;2.20;;
48665;SDS011;34452;50.796;4.994;2022-07-23T13:53:12;2.90;;;1.88;;
48665;SDS011;34452;50.796;4.994;2022-07-23T13:55:40;2.42;;;1.80;;
48665;SDS011;34452;50.796;4.994;2022-07-23T13:58:07;5.20;;;2.20;;
48665;SDS011;34452;50.796;4.994;2022-07-23T14:00:34;4.82;;;2.35;;
48665;SDS011;34452;50.796;4.994;2022-07-23T14:03:02;3.78;;;2.03;;
48665;SDS011;34452;50.796;4.994;2022-07-23T14:05:28;5.30;;;2.00;;
48665;SDS011;34452;50.796;4.994;2022-07-23T14:07:54;5.53;;;1.83;;
48665;SDS011;34452;50.796;4.994;2022-07-23T14:12:47;4.03;;;2.35;;
48665;SDS011;34452;50.796;4.994;2022-07-23T14:15:14;4.40;;;2.10;;
48665;SDS011;34452;50.796;4.994;2022-07-23T14:20:07;2.53;;;1.88;;
48665;SDS011;34452;50.796;4.994;2022-07-23T14:22:33;4.70;;;2.28;;
48665;SDS011;34452;50.796;4.994;2022-07-23T14:27:25;3.75;;;2.15;;
48665;SDS011;34452;50.796;4.994;2022-07-23T14:29:53;5.93;;;2.28;;
48665;SDS011;34452;50.796;4.994;2022-07-23T14:32:19;2.33;;;1.65;;
48665;SDS011;34452;50.796;4.994;2022-07-23T14:34:45;3.20;;;2.30;;
48665;SDS011;34452;50.796;4.994;2022-07-23T14:39:37;4.80;;;1.77;;
48665;SDS011;34452;50.796;4.994;2022-07-23T14:42:04;6.82;;;1.90;;
48665;SDS011;34452;50.796;4.994;2022-07-23T14:44:30;2.88;;;1.85;;
48665;SDS011;34452;50.796;4.994;2022-07-23T14:49:21;3.92;;;1.90;;
48665;SDS011;34452;50.796;4.994;2022-07-23T14:54:13;5.97;;;2.35;;
48665;SDS011;34452;50.796;4.994;2022-07-23T14:59:05;3.08;;;2.15;;
48665;SDS011;34452;50.796;4.994;2022-07-23T15:03:57;6.70;;;1.90;;
48665;SDS011;34452;50.796;4.994;2022-07-23T15:08:49;10.93;;;2.78;;
48665;SDS011;34452;50.796;4.994;2022-07-23T15:11:15;11.23;;;2.40;;
48665;SDS011;34452;50.796;4.994;2022-07-23T15:16:06;4.30;;;2.47;;
48665;SDS011;34452;50.796;4.994;2022-07-23T15:18:33;4.88;;;2.80;;
48665;SDS011;34452;50.796;4.994;2022-07-23T15:23:26;4.60;;;2.65;;
48665;SDS011;34452;50.796;4.994;2022-07-23T15:28:19;5.18;;;2.67;;
48665;SDS011;34452;50.796;4.994;2022-07-23T15:33:10;4.40;;;3.00;;
48665;SDS011;34452;50.796;4.994;2022-07-23T15:38:01;6.95;;;2.70;;
48665;SDS011;34452;50.796;4.994;2022-07-23T15:40:27;3.90;;;2.72;;
48665;SDS011;34452;50.796;4.994;2022-07-23T15:42:52;5.47;;;2.38;;
48665;SDS011;34452;50.796;4.994;2022-07-23T15:45:18;3.08;;;2.28;;
48665;SDS011;34452;50.796;4.994;2022-07-23T15:47:44;4.68;;;2.50;;
48665;SDS011;34452;50.796;4.994;2022-07-23T15:50:12;3.63;;;2.60;;
48665;SDS011;34452;50.796;4.994;2022-07-23T15:52:38;4.85;;;2.70;;
48665;SDS011;34452;50.796;4.994;2022-07-23T15:55:04;6.90;;;2.60;;
48665;SDS011;34452;50.796;4.994;2022-07-23T15:57:30;2.50;;;2.10;;
48665;SDS011;34452;50.796;4.994;2022-07-23T15:59:56;4.18;;;2.55;;
48665;SDS011;34452;50.796;4.994;2022-07-23T16:02:22;6.85;;;2.58;;
48665;SDS011;34452;50.796;4.994;2022-07-23T16:04:48;5.30;;;2.83;;
48665;SDS011;34452;50.796;4.994;2022-07-23T16:07:16;2.53;;;2.30;;
48665;SDS011;34452;50.796;4.994;2022-07-23T16:09:42;4.35;;;2.55;;
48665;SDS011;34452;50.796;4.994;2022-07-23T16:12:08;6.13;;;3.08;;
48665;SDS011;34452;50.796;4.994;2022-07-23T16:14:34;4.50;;;2.15;;
48665;SDS011;34452;50.796;4.994;2022-07-23T16:17:00;9.82;;;2.95;;
48665;SDS011;34452;50.796;4.994;2022-07-23T16:19:26;4.13;;;2.50;;
48665;SDS011;34452;50.796;4.994;2022-07-23T16:21:52;4.60;;;2.83;;
48665;SDS011;34452;50.796;4.994;2022-07-23T16:24:18;3.55;;;2.25;;
48665;SDS011;34452;50.796;4.994;2022-07-23T16:26:44;9.40;;;2.88;;
48665;SDS011;34452;50.796;4.994;2022-07-23T16:29:10;3.17;;;2.70;;
48665;SDS011;34452;50.796;4.994;2022-07-23T16:31:36;3.60;;;2.28;;
48665;SDS011;34452;50.796;4.994;2022-07-23T16:34:02;3.75;;;2.53;;
48665;SDS011;34452;50.796;4.994;2022-07-23T16:36:28;3.08;;;2.58;;
48665;SDS011;34452;50.796;4.994;2022-07-23T16:38:54;6.43;;;2.50;;
48665;SDS011;34452;50.796;4.994;2022-07-23T16:41:20;6.43;;;2.72;;
48665;SDS011;34452;50.796;4.994;2022-07-23T16:43:46;4.20;;;2.70;;